Time;durP1;ratioP1;P1;durP2;ratioP2;P2;SDS_P1;SDS_P2;PMS_P1;PMS_P2;Temp;Humidity;BMP_temperature;BMP_pressure;BME280_temperature;BME280_humidity;BME280_pressure;Samples;Min_cycle;Max_cycle;Signal;HPM_P1;HPM_P2
2023/02/27 00:01:32;;;;;;;18.98;3.72;;;;;;;16.09;57.84;99363.72;5048467;28;20409;-30
2023/02/27 00:03:57;;;;;;;13.50;3.33;;;;;;;16.21;57.66;99367.72;5048791;28;20029;-30
2023/02/27 00:06:23;;;;;;;8.98;3.15;;;;;;;16.18;56.84;99352.13;5048652;28;20044;-28
2023/02/27 00:08:48;;;;;;;12.43;3.05;;;;;;;16.18;56.07;99340.56;5048873;28;20050;-31
2023/02/27 00:11:16;;;;;;;11.60;3.15;;;;;;;16.31;55.99;99361.50;5048636;28;20025;-30
2023/02/27 00:13:41;;;;;;;13.95;3.70;;;;;;;16.12;56.66;99349.72;5048390;28;20036;-31
2023/02/27 00:16:07;;;;;;;12.60;3.17;;;;;;;16.07;56.44;99366.69;5047023;28;20029;-32
2023/02/27 00:18:33;;;;;;;10.05;2.80;;;;;;;16.03;56.88;99376.38;5048426;28;20111;-32
2023/02/27 00:20:58;;;;;;;10.90;2.92;;;;;;;16.06;56.69;99371.25;5048351;28;20415;-29
2023/02/27 00:23:24;;;;;;;12.15;2.90;;;;;;;15.93;57.33;99366.41;5046512;28;20032;-30
2023/02/27 00:25:51;;;;;;;12.90;2.95;;;;;;;16.02;57.74;99380.94;5048288;28;20474;-30
2023/02/27 00:28:16;;;;;;;9.98;2.90;;;;;;;15.91;57.52;99363.19;5048254;28;20037;-30
2023/02/27 00:30:45;;;;;;;10.68;2.80;;;;;;;15.89;58.07;99373.41;5048507;28;20060;-30
2023/02/27 00:33:10;;;;;;;9.82;2.75;;;;;;;15.84;58.72;99379.63;5048170;28;20029;-30
2023/02/27 00:35:38;;;;;;;12.65;3.03;;;;;;;15.86;58.70;99372.09;5047598;28;20091;-31
2023/02/27 00:38:04;;;;;;;;;;;;;;;16.07;57.91;99377.44;5048738;28;20025;-29
2023/02/27 00:40:29;;;;;;;9.98;2.53;;;;;;;15.77;58.31;99383.66;5048127;28;20007;-29
2023/02/27 00:42:55;;;;;;;11.77;2.90;;;;;;;15.87;58.25;99399.78;5048123;28;20289;-30
2023/02/27 00:45:20;;;;;;;12.15;2.65;;;;;;;15.73;58.60;99377.19;5047738;28;20538;-30
2023/02/27 00:47:46;;;;;;;14.02;2.85;;;;;;;15.74;58.61;99382.31;5048025;28;20029;-29
2023/02/27 00:50:13;;;;;;;13.18;2.83;;;;;;;15.65;58.76;99376.66;5046366;28;20029;-30
2023/02/27 00:52:38;;;;;;;7.30;2.00;;;;;;;15.70;58.68;99391.16;5047834;28;20785;-29
2023/02/27 00:55:04;;;;;;;10.90;2.25;;;;;;;15.71;58.90;99392.75;5047916;28;20025;-32
2023/02/27 00:57:30;;;;;;;8.88;2.92;;;;;;;15.64;58.37;99368.84;5047364;28;20463;-30
2023/02/27 00:59:55;;;;;;;6.32;2.17;;;;;;;15.84;57.74;99389.56;5047799;28;20131;-30
2023/02/27 01:02:21;;;;;;;8.77;2.30;;;;;;;15.99;57.39;99403.00;5047494;28;20582;-30
2023/02/27 01:04:46;;;;;;;11.00;2.13;;;;;;;15.86;58.24;99403.56;5047674;28;20064;-33
2023/02/27 01:07:12;;;;;;;11.20;2.33;;;;;;;15.86;58.04;99403.56;5047804;28;20044;-34
2023/02/27 01:09:37;;;;;;;6.85;2.35;;;;;;;15.89;57.74;99396.81;5047801;28;20032;-32
2023/02/27 01:12:03;;;;;;;10.02;2.45;;;;;;;15.80;58.99;99410.00;5047740;28;20029;-31
2023/02/27 01:14:29;;;;;;;10.55;2.72;;;;;;;15.95;58.88;99407.28;5047328;28;20021;-29
2023/02/27 01:16:56;;;;;;;9.55;2.40;;;;;;;15.80;59.25;99416.19;5046547;28;20075;-29
2023/02/27 01:19:22;;;;;;;8.30;2.25;;;;;;;15.57;60.16;99385.25;5046977;28;20025;-31
2023/02/27 01:21:48;;;;;;;10.23;2.53;;;;;;;15.64;59.26;99385.78;5047763;28;20123;-31
2023/02/27 01:24:13;;;;;;;9.00;2.13;;;;;;;15.72;59.15;99405.13;5047390;28;20025;-29
2023/02/27 01:26:39;;;;;;;10.23;2.70;;;;;;;15.64;59.85;99395.72;5049520;28;20483;-29
2023/02/27 01:29:04;;;;;;;15.45;3.30;;;;;;;15.54;60.56;99404.59;5051425;28;20025;-30
2023/02/27 01:31:29;;;;;;;13.50;2.85;;;;;;;15.63;60.44;99399.47;5051459;28;20086;-30
2023/02/27 01:33:55;;;;;;;13.85;3.05;;;;;;;15.55;60.72;99398.16;5051423;28;20025;-30
2023/02/27 01:36:20;;;;;;;11.75;3.35;;;;;;;15.57;61.33;99412.13;5051530;28;20075;-29
2023/02/27 01:38:46;;;;;;;14.52;2.95;;;;;;;15.34;62.36;99415.31;5051429;28;20441;-30
2023/02/27 01:41:11;;;;;;;13.57;3.45;;;;;;;15.21;63.82;99404.00;5051216;28;20029;-29
2023/02/27 01:43:56;;;;;;;13.88;3.22;;;;;;;15.09;64.59;99430.28;5051524;28;20504;-33
2023/02/27 01:46:22;;;;;;;15.63;4.22;;;;;;;15.07;64.65;99429.75;5051200;28;20113;-32
2023/02/27 01:48:47;;;;;;;16.75;4.15;;;;;;;15.27;63.78;99432.47;5051096;28;20056;-30
2023/02/27 01:51:18;;;;;;;13.75;3.40;;;;;;;14.95;65.15;99437.22;5051145;28;20035;-34
2023/02/27 01:53:47;;;;;;;12.55;3.65;;;;;;;14.98;65.43;99444.75;5049987;28;20021;-32
2023/02/27 01:56:21;;;;;;;16.13;3.03;;;;;;;15.12;65.21;99455.81;5050932;28;20493;-29
2023/02/27 01:58:48;;;;;;;13.18;3.67;;;;;;;14.97;65.21;99451.19;5051284;28;20130;-29
2023/02/27 02:01:15;;;;;;;17.70;4.80;;;;;;;14.95;65.30;99464.88;5050608;28;20048;-29
2023/02/27 02:04:14;;;;;;;16.02;4.05;;;;;;;15.04;64.86;99470.56;5049784;28;20056;-33
2023/02/27 02:06:45;;;;;;;17.27;3.47;;;;;;;14.97;64.55;99468.09;5051074;28;20037;-28
2023/02/27 02:09:14;;;;;;;12.38;3.67;;;;;;;14.94;64.02;99467.84;5051228;28;20555;-32
2023/02/27 02:11:40;;;;;;;8.75;3.25;;;;;;;14.85;64.48;99468.34;5050669;28;20037;-30
2023/02/27 02:14:09;;;;;;;13.07;3.33;;;;;;;14.76;65.18;99472.56;5050955;28;20047;-32
2023/02/27 02:16:40;;;;;;;15.00;3.80;;;;;;;14.80;65.33;99471.00;5049410;28;20382;-31
2023/02/27 02:19:24;;;;;;;15.82;4.30;;;;;;;14.58;65.40;99475.69;5050893;28;20044;-32
2023/02/27 02:22:08;;;;;;;18.80;4.25;;;;;;;14.82;63.84;99466.16;5050732;28;20032;-32
2023/02/27 02:25:01;;;;;;;13.68;3.40;;;;;;;14.88;62.74;99468.88;5049225;28;20036;-30
2023/02/27 02:27:54;;;;;;;12.00;3.72;;;;;;;15.00;61.71;99439.94;5050366;28;20033;-33
2023/02/27 02:30:58;;;;;;;11.35;3.63;;;;;;;14.78;62.04;99438.22;5050143;28;20410;-28
2023/02/27 02:33:37;;;;;;;17.30;4.40;;;;;;;14.79;61.91;99452.44;5050362;28;20032;-30
2023/02/27 02:36:33;;;;;;;15.98;4.82;;;;;;;14.58;63.14;99448.88;5050382;28;20108;-31
2023/02/27 02:39:16;;;;;;;12.63;2.75;;;;;;;14.43;63.71;99453.06;5050626;28;20059;-33
2023/02/27 02:42:03;;;;;;;17.05;3.65;;;;;;;14.53;63.15;99454.19;5050238;28;20095;-30
2023/02/27 02:44:38;;;;;;;17.35;5.40;;;;;;;14.48;63.09;99460.31;5048797;28;20472;-29
2023/02/27 02:47:13;;;;;;;14.35;4.10;;;;;;;14.33;63.42;99447.63;5050141;28;20049;-29
2023/02/27 02:50:11;;;;;;;25.00;6.90;;;;;;;14.39;63.53;99473.41;5050370;28;20029;-30
2023/02/27 02:53:03;;;;;;;16.95;3.00;;;;;;;14.52;63.35;99474.81;5050014;28;20041;-29
2023/02/27 02:55:40;;;;;;;19.23;3.58;;;;;;;14.39;63.78;99473.41;5049786;28;20021;-31
2023/02/27 02:58:14;;;;;;;16.13;4.18;;;;;;;14.43;63.69;99482.56;5050221;28;20094;-30
2023/02/27 03:00:49;;;;;;;17.98;3.35;;;;;;;14.50;63.51;99489.56;5050153;28;20032;-30
2023/02/27 03:03:27;;;;;;;18.52;3.78;;;;;;;14.45;63.35;99482.31;5049447;28;20036;-30
2023/02/27 03:05:59;;;;;;;18.63;5.10;;;;;;;14.42;63.77;99494.34;5049986;28;20071;-30
2023/02/27 03:08:29;;;;;;;24.98;10.95;;;;;;;14.53;63.74;99502.47;5049787;28;20561;-34
2023/02/27 03:11:03;;;;;;;23.17;7.65;;;;;;;14.65;63.50;99511.97;5050124;28;20031;-31
2023/02/27 03:13:31;;;;;;;44.80;22.25;;;;;;;14.70;63.55;99513.88;5049564;28;20032;-29
2023/02/27 03:16:16;;;;;;;18.98;4.60;;;;;;;14.72;63.70;99519.00;5049621;28;20037;-31
2023/02/27 03:19:22;;;;;;;18.73;4.97;;;;;;;14.76;64.07;99510.16;5049858;28;20043;-30
2023/02/27 03:21:58;;;;;;;20.27;4.43;;;;;;;14.35;66.27;99504.50;5047022;28;20040;-33
2023/02/27 03:24:32;;;;;;;24.20;5.15;;;;;;;14.42;66.82;99494.34;5049457;28;20032;-30
2023/02/27 03:27:01;;;;;;;18.50;4.45;;;;;;;14.24;68.31;99490.22;5049300;28;20512;-30
2023/02/27 03:29:41;;;;;;;18.08;4.47;;;;;;;14.12;69.55;99494.13;5049246;28;20467;-33
2023/02/27 03:32:20;;;;;;;23.98;4.28;;;;;;;13.99;69.83;99496.16;5049397;28;20032;-33
2023/02/27 03:34:46;;;;;;;19.38;4.03;;;;;;;13.67;71.02;99480.09;5049163;28;20143;-30
2023/02/27 03:37:54;;;;;;;19.48;4.40;;;;;;;13.82;70.96;99500.84;5049364;28;20505;-30
2023/02/27 03:40:29;;;;;;;17.13;4.75;;;;;;;13.67;71.34;99488.13;5048484;28;20036;-30
2023/02/27 03:43:01;;;;;;;19.60;4.40;;;;;;;13.86;70.74;99502.75;5048949;28;20049;-30
2023/02/27 03:45:34;;;;;;;21.88;3.88;;;;;;;13.79;71.09;99507.53;5047229;28;20140;-30
2023/02/27 03:48:01;;;;;;;21.48;4.20;;;;;;;13.96;70.85;99523.50;5048950;28;20033;-29
2023/02/27 03:50:29;;;;;;;19.55;4.25;;;;;;;13.94;70.95;99530.97;5048550;28;20573;-29
2023/02/27 03:52:57;;;;;;;20.95;4.50;;;;;;;13.93;70.97;99534.72;5048960;28;20021;-30
2023/02/27 03:55:31;;;;;;;17.13;4.40;;;;;;;13.99;70.76;99533.69;5048551;28;20037;-33
2023/02/27 03:57:57;;;;;;;17.02;4.00;;;;;;;14.11;70.59;99563.03;5048891;28;20056;-30
2023/02/27 04:00:24;;;;;;;21.75;4.78;;;;;;;14.20;70.07;99544.59;5048902;28;20090;-29
2023/02/27 04:02:52;;;;;;;24.70;5.93;;;;;;;14.20;70.47;99566.88;5048853;28;20845;-30
2023/02/27 04:05:19;;;;;;;21.05;5.47;;;;;;;14.17;70.94;99563.91;5048610;28;20029;-29
2023/02/27 04:08:20;;;;;;;17.50;4.35;;;;;;;14.07;71.32;99568.09;5048694;28;20041;-31
2023/02/27 04:10:51;;;;;;;24.10;5.00;;;;;;;14.05;71.23;99580.13;5048623;28;20060;-30
2023/02/27 04:13:49;;;;;;;24.63;6.50;;;;;;;14.19;70.41;99589.38;5048318;28;20098;-30
2023/02/27 04:16:17;;;;;;;26.40;7.95;;;;;;;14.12;70.22;99606.72;5048578;28;20055;-30
2023/02/27 04:18:48;;;;;;;24.75;6.30;;;;;;;14.32;69.04;99606.91;5048349;28;20053;-30
2023/02/27 04:21:29;;;;;;;20.88;5.93;;;;;;;14.34;68.88;99610.16;5048740;28;20037;-33
2023/02/27 04:24:23;;;;;;;25.23;5.78;;;;;;;14.44;67.94;99614.81;5048555;28;20021;-33
2023/02/27 04:26:53;;;;;;;20.95;4.90;;;;;;;14.16;67.56;99619.41;5048187;28;20046;-32
2023/02/27 04:29:32;;;;;;;25.83;5.57;;;;;;;13.88;68.74;99601.69;5048103;28;20029;-32
2023/02/27 04:32:09;;;;;;;21.63;4.45;;;;;;;13.96;68.59;99598.56;5048580;28;20044;-30
2023/02/27 04:34:42;;;;;;;23.70;5.15;;;;;;;14.02;68.34;99600.22;5048224;28;20056;-29
2023/02/27 04:37:31;;;;;;;22.30;6.18;;;;;;;14.05;68.76;99626.50;5047953;28;20097;-31
2023/02/27 04:40:04;;;;;;;28.25;6.25;;;;;;;13.95;68.86;99626.41;5047392;28;20056;-30
2023/02/27 04:42:33;;;;;;;24.10;6.05;;;;;;;13.89;68.60;99635.44;5047963;28;20057;-29
2023/02/27 04:45:03;;;;;;;30.33;5.25;;;;;;;13.98;67.50;99617.88;5047719;28;20449;-31
2023/02/27 04:47:35;;;;;;;30.35;5.80;;;;;;;14.18;66.05;99648.63;5047625;28;20028;-31
2023/02/27 04:50:18;;;;;;;24.00;4.80;;;;;;;14.18;64.57;99627.16;5048190;28;20025;-32
2023/02/27 04:52:51;;;;;;;25.17;5.70;;;;;;;14.15;64.10;99639.22;5047938;28;20079;-31
2023/02/27 04:55:22;;;;;;;24.00;4.68;;;;;;;14.21;62.60;99653.50;5046225;28;20070;-31
2023/02/27 04:57:59;;;;;;;19.25;3.45;;;;;;;14.25;61.46;99650.06;5047801;28;20033;-31
2023/02/27 05:00:28;;;;;;;18.77;3.70;;;;;;;14.13;60.94;99646.72;5047257;28;20060;-30
2023/02/27 05:03:00;;;;;;;20.55;4.72;;;;;;;14.12;61.24;99671.09;5047991;28;20063;-29
2023/02/27 05:05:30;;;;;;;32.13;5.18;;;;;;;14.33;59.96;99670.25;5047727;28;20040;-29
2023/02/27 05:08:02;;;;;;;26.77;6.03;;;;;;;14.34;59.61;99658.44;5047875;28;20032;-31
2023/02/27 05:10:37;;;;;;;27.58;4.72;;;;;;;14.38;59.72;99667.59;5047783;28;20029;-30
2023/02/27 05:13:14;;;;;;;32.60;6.15;;;;;;;14.69;58.81;99686.72;5047932;28;20048;-32
2023/02/27 05:15:47;;;;;;;21.88;5.13;;;;;;;14.66;58.30;99698.75;5046515;28;20102;-30
2023/02/27 05:18:17;;;;;;;30.08;7.13;;;;;;;14.70;58.22;99763.47;5047686;28;20033;-34
2023/02/27 05:21:25;;;;;;;21.75;5.38;;;;;;;14.13;59.58;99861.25;5047534;28;20104;-30
2023/02/27 05:24:10;;;;;;;14.88;3.60;;;;;;;13.72;61.53;99857.97;5046130;28;20501;-31
2023/02/27 05:26:51;;;;;;;48.35;19.05;;;;;;;13.54;61.93;99856.34;5047431;28;20032;-30
2023/02/27 05:29:55;;;;;;;12.10;3.67;;;;;;;13.64;62.30;99891.34;5047375;28;20153;-31
2023/02/27 05:32:46;;;;;;;59.13;23.08;;;;;;;13.52;62.18;99889.78;5046004;28;20041;-34
2023/02/27 05:35:15;;;;;;;18.90;6.63;;;;;;;13.42;62.57;99903.81;5047335;28;20562;-30
2023/02/27 05:37:43;;;;;;;15.50;4.13;;;;;;;13.30;63.20;99878.97;5047226;28;20025;-30
2023/02/27 05:40:14;;;;;;;4.60;1.27;;;;;;;13.40;63.04;99895.22;5047293;28;20041;-29
2023/02/27 05:42:49;;;;;;;6.10;1.80;;;;;;;13.36;63.11;99905.63;5047351;28;20056;-31
2023/02/27 05:45:25;;;;;;;10.20;1.80;;;;;;;13.22;62.89;99905.06;5047080;28;20036;-31
2023/02/27 05:48:06;;;;;;;25.40;12.13;;;;;;;13.16;63.34;99923.97;5047493;28;20083;-31
2023/02/27 05:50:34;;;;;;;17.60;6.38;;;;;;;13.15;63.13;99919.63;5047250;28;20033;-31
2023/02/27 05:53:04;;;;;;;5.60;2.25;;;;;;;13.23;63.12;99912.03;5047773;28;20546;-32
2023/02/27 05:55:43;;;;;;;10.45;3.30;;;;;;;13.14;63.43;99929.53;5047252;28;20130;-31
2023/02/27 05:58:20;;;;;;;32.20;18.25;;;;;;;12.94;63.85;99929.16;5047318;28;20094;-33
2023/02/27 06:00:53;;;;;;;14.20;6.80;;;;;;;12.98;63.57;99932.97;5047484;28;20455;-31
2023/02/27 06:03:19;;;;;;;41.67;23.38;;;;;;;13.13;64.07;99949.31;5047366;28;20029;-30
2023/02/27 06:05:46;;;;;;;28.02;14.73;;;;;;;13.10;64.48;99947.13;5045768;28;20025;-31
2023/02/27 06:08:11;;;;;;;29.17;15.40;;;;;;;13.10;64.85;99939.09;5047301;28;20029;-32
2023/02/27 06:10:37;;;;;;;44.60;24.67;;;;;;;13.24;64.66;99937.78;5047135;28;20428;-33
2023/02/27 06:13:02;;;;;;;10.98;4.88;;;;;;;13.23;65.33;99929.97;5049535;28;20109;-31
2023/02/27 06:15:28;;;;;;;3.25;1.20;;;;;;;13.34;65.42;99917.59;5050213;28;20111;-30
2023/02/27 06:17:55;;;;;;;4.55;1.33;;;;;;;13.41;65.45;99923.63;5051278;28;20029;-30
2023/02/27 06:20:20;;;;;;;5.82;1.30;;;;;;;13.38;65.06;99905.34;5050643;28;20036;-30
2023/02/27 06:22:46;;;;;;;5.75;1.13;;;;;;;13.30;66.68;99905.75;5050707;28;20037;-30
2023/02/27 06:25:12;;;;;;;4.45;1.30;;;;;;;13.33;66.71;99897.25;5050887;28;20036;-33
2023/02/27 06:27:37;;;;;;;2.90;0.98;;;;;;;13.40;66.78;99881.81;5050136;28;20048;-29
2023/02/27 06:30:06;;;;;;;6.32;1.45;;;;;;;13.58;66.03;99886.13;5050972;28;20120;-29
2023/02/27 06:32:33;;;;;;;4.53;1.35;;;;;;;13.47;66.00;99863.75;5050381;28;20068;-33
2023/02/27 06:34:59;;;;;;;6.70;1.35;;;;;;;13.84;65.05;99887.38;5050602;28;20155;-29
2023/02/27 06:37:24;;;;;;;4.85;1.20;;;;;;;13.82;64.53;99876.06;5050292;28;20505;-29
2023/02/27 06:39:50;;;;;;;5.30;1.08;;;;;;;13.92;64.95;99889.63;5050339;28;20128;-29
2023/02/27 06:42:18;;;;;;;3.45;1.13;;;;;;;13.89;64.78;99900.81;5049860;28;20052;-29
2023/02/27 06:44:44;;;;;;;8.30;1.80;;;;;;;13.77;65.58;99902.78;5050571;28;20103;-31
2023/02/27 06:47:11;;;;;;;5.93;1.33;;;;;;;13.75;65.27;99915.63;5050514;28;20029;-30
2023/02/27 06:49:37;;;;;;;5.15;1.20;;;;;;;13.90;65.24;99936.50;5049991;28;20059;-31
2023/02/27 06:52:02;;;;;;;5.68;2.60;;;;;;;13.97;65.29;99942.50;5049961;28;20037;-30
2023/02/27 06:54:28;;;;;;;13.57;4.30;;;;;;;13.88;65.67;99915.31;5049938;28;20028;-29
2023/02/27 06:56:53;;;;;;;18.73;6.65;;;;;;;13.91;65.11;99906.75;5048201;28;20620;-34
2023/02/27 06:59:21;;;;;;;6.95;2.05;;;;;;;14.00;65.05;99929.44;5049871;28;20028;-36
2023/02/27 07:01:47;;;;;;;7.22;1.38;;;;;;;13.96;65.99;99930.97;5050388;28;20035;-33
2023/02/27 07:04:22;;;;;;;3.85;1.20;;;;;;;13.79;66.80;99924.78;5049371;28;20037;-32
2023/02/27 07:06:51;;;;;;;4.57;1.17;;;;;;;13.60;67.69;99933.06;5049061;28;20025;-32
2023/02/27 07:09:17;;;;;;;6.55;1.65;;;;;;;14.10;66.25;99942.19;5049379;28;20091;-35
2023/02/27 07:11:42;;;;;;;5.70;1.70;;;;;;;14.10;65.85;99934.16;5049514;28;20041;-31
2023/02/27 07:14:08;;;;;;;5.38;1.70;;;;;;;14.02;65.44;99919.28;5049684;28;20055;-32
2023/02/27 07:16:36;;;;;;;4.80;1.10;;;;;;;14.12;64.95;99924.00;5049899;28;20029;-32
2023/02/27 07:19:01;;;;;;;4.40;1.20;;;;;;;14.20;64.66;99939.66;5049799;28;20057;-33
2023/02/27 07:21:26;;;;;;;8.18;1.75;;;;;;;14.41;65.05;99938.06;5049096;28;20119;-33
2023/02/27 07:23:52;;;;;;;5.20;1.77;;;;;;;14.46;64.23;99946.22;5048461;28;20112;-32
2023/02/27 07:26:17;;;;;;;7.30;1.10;;;;;;;14.56;63.16;99925.97;5049310;28;20035;-32
2023/02/27 07:28:43;;;;;;;3.17;1.00;;;;;;;14.65;62.31;99936.03;5049363;28;20024;-34
2023/02/27 07:31:08;;;;;;;3.80;1.08;;;;;;;14.79;62.43;99954.41;5049184;28;20036;-32
2023/02/27 07:33:33;;;;;;;7.03;1.20;;;;;;;14.85;62.17;99959.63;5049374;28;20493;-32
2023/02/27 07:35:59;;;;;;;5.53;1.30;;;;;;;14.96;60.96;99965.13;5049240;28;20032;-30
2023/02/27 07:38:27;;;;;;;5.93;1.42;;;;;;;15.20;60.34;99947.69;5049415;28;20029;-29
2023/02/27 07:40:53;;;;;;;2.95;1.27;;;;;;;15.03;59.51;99941.56;5049337;28;20634;-29
2023/02/27 07:43:18;;;;;;;5.63;1.25;;;;;;;15.11;60.46;99973.34;5048989;28;20056;-32
2023/02/27 07:45:44;;;;;;;3.55;1.20;;;;;;;15.46;59.47;99958.66;5049302;28;20036;-31
2023/02/27 07:48:09;;;;;;;9.60;1.67;;;;;;;15.42;58.83;99949.50;5049317;28;20028;-29
2023/02/27 07:50:35;;;;;;;5.28;1.10;;;;;;;15.48;59.18;99967.28;5048954;28;20033;-29
2023/02/27 07:53:01;;;;;;;7.10;1.80;;;;;;;15.63;58.91;99970.13;5048637;28;20032;-35
2023/02/27 07:55:26;;;;;;;6.57;1.73;;;;;;;15.56;58.38;99947.22;5048992;28;20623;-30
2023/02/27 07:57:51;;;;;;;4.70;1.30;;;;;;;15.59;57.89;99969.03;5048956;28;20175;-31
2023/02/27 08:00:17;;;;;;;6.18;1.80;;;;;;;15.87;57.57;99975.22;5048793;28;20029;-30
2023/02/27 08:02:43;;;;;;;8.25;2.45;;;;;;;15.80;57.18;99953.13;5048891;28;20737;-32
2023/02/27 08:05:08;;;;;;;7.15;2.55;;;;;;;16.01;57.98;99976.41;5048796;28;20451;-30
2023/02/27 08:07:35;;;;;;;8.07;2.50;;;;;;;15.88;57.09;99970.66;5048433;28;20029;-31
2023/02/27 08:10:01;;;;;;;8.68;2.47;;;;;;;15.98;56.94;99971.53;5048428;28;20079;-31
2023/02/27 08:12:27;;;;;;;8.70;2.38;;;;;;;16.21;56.64;99969.56;5048747;28;20090;-29
2023/02/27 08:14:52;;;;;;;5.40;1.80;;;;;;;16.25;56.59;99976.84;5048533;28;20025;-30
2023/02/27 08:17:18;;;;;;;9.45;1.52;;;;;;;16.06;56.13;99981.84;5048361;28;20021;-30
2023/02/27 08:19:43;;;;;;;9.18;2.25;;;;;;;16.29;56.41;99985.22;5048590;28;20082;-31
2023/02/27 08:22:09;;;;;;;6.93;1.60;;;;;;;16.44;56.80;99990.69;5046926;28;20028;-31
2023/02/27 08:24:34;;;;;;;6.07;1.50;;;;;;;16.51;54.65;99973.50;5048257;28;20782;-29
2023/02/27 08:27:09;;;;;;;7.45;1.67;;;;;;;16.59;54.90;99976.53;5048397;28;20091;-32
2023/02/27 08:29:36;;;;;;;5.22;1.60;;;;;;;17.05;53.91;99978.66;5048224;28;20028;-30
2023/02/27 08:32:03;;;;;;;4.15;1.40;;;;;;;16.94;54.21;99987.75;5048102;28;20416;-29
2023/02/27 08:34:29;;;;;;;6.32;1.90;;;;;;;16.60;54.53;99998.88;5047986;28;20474;-30
2023/02/27 08:36:57;;;;;;;8.07;2.00;;;;;;;16.83;54.02;100003.88;5047963;28;20126;-30
2023/02/27 08:39:25;;;;;;;10.13;3.17;;;;;;;16.97;53.85;99989.94;5048074;28;20025;-29
2023/02/27 08:41:51;;;;;;;16.77;8.55;;;;;;;17.19;52.75;100005.94;5048222;28;20123;-29
2023/02/27 08:44:17;;;;;;;13.10;6.03;;;;;;;17.42;51.39;99999.25;5048252;28;20541;-30
2023/02/27 08:46:43;;;;;;;15.00;8.95;;;;;;;17.52;51.34;100001.97;5048225;28;20480;-32
2023/02/27 08:49:08;;;;;;;17.02;7.28;;;;;;;17.70;51.72;100011.44;5047848;28;20540;-30
2023/02/27 08:51:34;;;;;;;9.60;3.25;;;;;;;17.79;50.59;100015.22;5047849;28;20117;-29
2023/02/27 08:53:59;;;;;;;7.57;2.53;;;;;;;17.74;49.48;100007.13;5047955;28;20025;-30
2023/02/27 08:56:25;;;;;;;9.43;2.97;;;;;;;17.63;49.92;100014.41;5047854;28;20040;-34
2023/02/27 08:58:51;;;;;;;9.52;2.88;;;;;;;17.94;49.25;100021.75;5047891;28;20029;-30
2023/02/27 09:01:17;;;;;;;8.85;2.88;;;;;;;18.36;48.80;100018.78;5047585;28;20117;-30
2023/02/27 09:03:43;;;;;;;4.68;1.70;;;;;;;18.35;48.57;100022.56;5047818;28;20025;-32
2023/02/27 09:06:08;;;;;;;4.72;1.27;;;;;;;18.55;48.41;100026.31;5047525;28;20790;-30
2023/02/27 09:08:34;;;;;;;1.98;0.95;;;;;;;18.67;47.68;100019.56;5047861;28;20051;-31
2023/02/27 09:10:59;;;;;;;3.10;0.88;;;;;;;18.82;46.98;100005.22;5047949;28;20029;-33
2023/02/27 09:13:25;;;;;;;10.18;2.00;;;;;;;18.94;47.25;100023.00;5047482;28;20029;-30
2023/02/27 09:15:51;;;;;;;5.97;1.73;;;;;;;19.13;47.54;100024.03;5047644;28;20091;-31
2023/02/27 09:18:17;;;;;;;4.63;1.00;;;;;;;18.84;46.86;100018.47;5047733;28;20513;-33
2023/02/27 09:20:42;;;;;;;6.75;1.60;;;;;;;19.35;45.99;100022.81;5047386;28;20099;-29
2023/02/27 09:23:08;;;;;;;6.68;1.60;;;;;;;19.47;44.84;100032.25;5047562;28;20029;-31
2023/02/27 09:25:33;;;;;;;6.38;1.70;;;;;;;19.47;45.42;100044.94;5047502;28;20441;-29
2023/02/27 09:27:59;;;;;;;6.88;1.73;;;;;;;19.41;45.16;100030.66;5047526;28;20017;-30
2023/02/27 09:30:24;;;;;;;6.72;1.90;;;;;;;19.67;45.18;100028.59;5047326;28;20085;-33
2023/02/27 09:32:50;;;;;;;5.78;1.48;;;;;;;19.64;45.03;100034.56;5047538;28;20028;-31
2023/02/27 09:35:16;;;;;;;5.40;1.83;;;;;;;19.94;44.29;100045.50;5047056;28;20029;-32
2023/02/27 09:37:43;;;;;;;6.78;1.48;;;;;;;19.81;44.73;100033.41;5047458;28;20124;-31
2023/02/27 09:40:19;;;;;;;5.70;1.20;;;;;;;19.68;46.32;100024.00;5047468;28;20039;-29
2023/02/27 09:42:48;;;;;;;6.05;1.63;;;;;;;19.48;44.99;100030.34;5046977;28;20433;-30
2023/02/27 09:45:38;;;;;;;7.85;1.70;;;;;;;20.03;44.05;100031.09;5047193;28;20029;-30
2023/02/27 09:48:18;;;;;;;4.57;1.10;;;;;;;19.87;44.69;100026.88;5050371;28;20127;-30
2023/02/27 09:50:47;;;;;;;7.10;1.23;;;;;;;20.10;43.60;100030.75;5051125;28;20424;-30
2023/02/27 09:53:21;;;;;;;5.78;1.35;;;;;;;19.94;43.54;100030.09;5050986;28;20419;-32
2023/02/27 09:55:48;;;;;;;8.40;1.52;;;;;;;19.86;43.40;100028.78;5050957;28;20091;-32
2023/02/27 09:58:32;;;;;;;6.53;1.40;;;;;;;20.25;42.75;100027.13;5051091;28;20511;-29
2023/02/27 10:01:13;;;;;;;7.80;1.70;;;;;;;19.99;43.19;100027.34;5051208;28;20124;-34
2023/02/27 10:03:47;;;;;;;7.30;1.40;;;;;;;20.23;42.36;100032.84;5051108;28;20036;-29
2023/02/27 10:06:56;;;;;;;11.73;2.63;;;;;;;20.31;43.41;100026.00;5050855;28;20029;-29
2023/02/27 10:09:41;;;;;;;6.10;1.48;;;;;;;20.52;42.79;100020.41;5048908;28;20071;-30
2023/02/27 10:12:31;;;;;;;11.02;2.55;;;;;;;21.04;41.69;100019.59;5051136;28;20516;-30
2023/02/27 10:15:01;;;;;;;7.35;2.00;;;;;;;21.59;41.05;100015.63;5050527;28;20106;-29
2023/02/27 10:17:48;;;;;;;10.27;2.33;;;;;;;21.66;40.66;100022.31;5050690;28;20025;-31
2023/02/27 10:20:25;;;;;;;12.32;1.90;;;;;;;21.78;41.01;100013.72;5051002;28;20056;-29
2023/02/27 10:22:53;;;;;;;15.38;2.53;;;;;;;21.57;40.71;100010.47;5050688;28;20090;-29
2023/02/27 10:25:19;;;;;;;;;;;;;;;21.30;41.82;100011.09;5050837;28;20082;-30
2023/02/27 10:27:52;;;;;;;15.80;2.72;;;;;;;21.41;41.75;100014.47;5050754;28;19938;-29
2023/02/27 10:30:23;;;;;;;12.23;2.10;;;;;;;21.40;41.76;100016.38;5050518;28;20505;-29
2023/02/27 10:33:01;;;;;;;17.25;3.47;;;;;;;21.31;42.21;99995.63;5050571;28;20048;-29
2023/02/27 10:35:42;;;;;;;16.23;2.88;;;;;;;21.25;41.92;99993.00;5050183;28;20029;-29
2023/02/27 10:38:28;;;;;;;15.60;2.75;;;;;;;21.18;42.32;99995.25;5050762;28;20047;-33
2023/02/27 10:40:56;;;;;;;14.07;3.17;;;;;;;21.38;41.78;99986.03;5050425;28;20029;-32
2023/02/27 10:43:21;;;;;;;11.15;2.17;;;;;;;21.51;41.23;99989.94;5050042;28;20140;-34
2023/02/27 10:45:47;;;;;;;10.43;2.50;;;;;;;21.70;40.72;99991.84;5050331;28;20899;-31
2023/02/27 10:48:14;;;;;;;13.30;2.58;;;;;;;22.08;40.76;100000.75;5049993;28;20035;-31
2023/02/27 10:50:42;;;;;;;18.13;2.97;;;;;;;22.39;40.53;99992.91;5050578;28;20113;-29
2023/02/27 10:53:26;;;;;;;17.65;2.72;;;;;;;22.00;40.21;99993.28;5050351;28;20051;-31
2023/02/27 10:56:05;;;;;;;18.02;3.55;;;;;;;21.87;40.63;99982.06;5050127;28;20028;-32
2023/02/27 10:58:33;;;;;;;19.95;3.28;;;;;;;22.04;40.62;99981.50;5048452;28;20029;-29
2023/02/27 11:01:09;;;;;;;15.75;3.03;;;;;;;22.35;39.95;99964.72;5050077;28;20032;-32
2023/02/27 11:03:40;;;;;;;13.20;3.17;;;;;;;22.49;39.36;99972.88;5049747;28;20033;-31
2023/02/27 11:06:11;;;;;;;13.50;2.88;;;;;;;22.86;39.13;99968.34;5050074;28;20456;-30
2023/02/27 11:08:36;;;;;;;13.35;3.38;;;;;;;22.94;39.22;99954.03;5048397;28;20703;-30
2023/02/27 11:11:03;;;;;;;18.88;3.30;;;;;;;23.19;38.51;99944.56;5049637;28;20033;-32
2023/02/27 11:13:35;;;;;;;16.83;3.33;;;;;;;23.52;38.56;99963.44;5049845;28;20029;-34
2023/02/27 11:16:04;;;;;;;18.60;3.80;;;;;;;23.91;37.61;99948.34;5049932;28;20414;-30
2023/02/27 11:18:32;;;;;;;27.30;5.15;;;;;;;23.74;37.91;99949.03;5049663;28;20063;-32
2023/02/27 11:21:28;;;;;;;19.08;4.28;;;;;;;23.72;36.38;99951.25;5049713;28;20145;-32
2023/02/27 11:23:58;;;;;;;19.95;4.47;;;;;;;23.88;36.24;99934.56;5048983;28;20136;-29
2023/02/27 11:26:25;;;;;;;30.05;4.20;;;;;;;23.94;37.10;99953.16;5049756;28;20071;-29
2023/02/27 11:29:13;;;;;;;20.80;3.88;;;;;;;23.35;37.55;99946.94;5049486;28;20037;-29
2023/02/27 11:32:03;;;;;;;20.95;4.15;;;;;;;23.24;37.84;99914.53;5049328;28;20120;-30
2023/02/27 11:34:37;;;;;;;23.20;5.03;;;;;;;23.55;37.93;99924.69;5049299;28;20047;-29
2023/02/27 11:37:02;;;;;;;21.90;4.45;;;;;;;23.48;37.31;99929.78;5049371;28;20028;-29
2023/02/27 11:39:46;;;;;;;24.15;4.40;;;;;;;23.96;37.20;99907.34;5049141;28;20025;-29
2023/02/27 11:42:27;;;;;;;25.48;4.20;;;;;;;24.46;35.88;99928.13;5047759;28;20092;-30
2023/02/27 11:44:58;;;;;;;33.72;7.32;;;;;;;23.86;37.37;99913.06;5049713;28;20567;-29
2023/02/27 11:47:48;;;;;;;25.90;3.92;;;;;;;23.79;37.14;99929.06;5049310;28;20044;-32